Time;durP1;ratioP1;P1;durP2;ratioP2;P2;SDS_P1;SDS_P2;PMS_P1;PMS_P2;Temp;Humidity;BMP_temperature;BMP_pressure;BME280_temperature;BME280_humidity;BME280_pressure;Samples;Min_cycle;Max_cycle;Signal;HPM_P1;HPM_P2
2023/05/28 00:00:30;;;;;;;;;6.50;6.50;;;;;11.20;60.66;100311.84;5115106;28;8823;-61
2023/05/28 00:03:00;;;;;;;;;4.00;3.00;;;;;11.15;60.65;100314.00;5115834;28;8847;-60
2023/05/28 00:05:28;;;;;;;;;7.00;7.00;;;;;11.12;60.90;100302.72;5115835;28;8836;-59
2023/05/28 00:08:00;;;;;;;;;10.00;10.00;;;;;11.08;60.66;100310.09;5115711;28;8820;-60
2023/05/28 00:10:28;;;;;;;;;5.50;5.50;;;;;11.04;61.15;100305.97;5115796;28;8886;-62
2023/05/28 00:12:56;;;;;;;;;4.50;4.50;;;;;11.01;60.90;100306.19;5115282;28;8820;-60
2023/05/28 00:15:23;;;;;;;;;6.50;6.25;;;;;10.99;60.82;100305.47;5116955;28;8838;-60
2023/05/28 00:17:53;;;;;;;;;9.00;7.00;;;;;10.97;60.70;100299.41;5119281;28;8846;-60
2023/05/28 00:20:21;;;;;;;;;7.00;7.00;;;;;10.97;61.17;100293.22;5119587;28;8852;-60
2023/05/28 00:22:51;;;;;;;;;6.50;5.25;;;;;10.95;61.18;100287.16;5119129;28;8819;-60
2023/05/28 00:25:18;;;;;;;;;10.50;10.25;;;;;10.93;61.20;100287.28;5119185;28;8847;-60
2023/05/28 00:27:46;;;;;;;;;6.50;6.50;;;;;10.88;61.41;100294.78;5101328;28;8832;-60
2023/05/28 00:30:14;;;;;;;;;6.25;6.25;;;;;10.84;61.21;100290.63;5118293;28;8834;-61
2023/05/28 00:32:41;;;;;;;;;7.00;6.25;;;;;10.79;61.44;100291.97;5118648;28;8840;-60
2023/05/28 00:35:09;;;;;;;;;7.00;7.00;;;;;10.74;61.44;100288.78;5119081;28;8882;-60
2023/05/28 00:37:37;;;;;;;;;6.25;6.00;;;;;10.71;61.66;100281.03;5118938;28;8843;-60
2023/05/28 00:40:05;;;;;;;;;6.25;6.25;;;;;10.70;61.04;100285.50;5118156;28;8820;-60
2023/05/28 00:42:33;;;;;;;;;8.00;6.25;;;;;10.70;61.61;100285.50;5118742;28;8811;-60
2023/05/28 00:45:02;;;;;;;;;6.75;6.25;;;;;10.70;61.37;100288.16;5119187;28;8819;-60
2023/05/28 00:47:29;;;;;;;;;6.50;4.75;;;;;10.66;61.93;100285.84;5118711;28;8849;-60
2023/05/28 00:50:00;;;;;;;;;8.00;6.75;;;;;10.61;61.43;100288.84;5118512;28;8859;-60
2023/05/28 00:52:27;;;;;;;;;9.50;6.50;;;;;10.57;61.31;100291.84;5118531;28;8831;-60
2023/05/28 00:54:56;;;;;;;;;7.00;7.00;;;;;10.54;61.87;100282.28;5119099;28;9605;-60
2023/05/28 00:57:24;;;;;;;;;5.33;4.67;;;;;10.50;61.69;100283.47;5118650;28;8820;-60
2023/05/28 00:59:52;;;;;;;;;3.75;3.00;;;;;10.47;62.02;100285.53;5118132;28;8808;-60
2023/05/28 01:02:20;;;;;;;;;7.00;7.00;;;;;10.44;61.93;100286.59;5118553;28;8847;-60
2023/05/28 01:04:48;;;;;;;;;3.00;3.00;;;;;10.42;62.10;100272.53;5118533;28;8851;-60
2023/05/28 01:07:15;;;;;;;;;6.25;6.25;;;;;10.41;62.29;100275.31;5118834;28;9652;-60
2023/05/28 01:09:43;;;;;;;;;8.50;7.00;;;;;10.40;61.69;100281.59;5118765;28;8803;-60
2023/05/28 01:12:11;;;;;;;;;7.00;6.25;;;;;10.37;62.28;100281.81;5117976;28;8843;-59
2023/05/28 01:14:39;;;;;;;;;4.50;4.50;;;;;10.36;61.81;100282.78;5118174;28;8857;-62
2023/05/28 01:17:06;;;;;;;;;6.00;6.00;;;;;10.33;62.25;100283.84;5117988;28;8958;-60
2023/05/28 01:19:35;;;;;;;;;4.50;4.50;;;;;10.31;62.45;100282.28;5118009;28;8819;-59
2023/05/28 01:22:03;;;;;;;;;1.00;1.00;;;;;10.28;61.90;100280.69;5118206;28;8844;-60
2023/05/28 01:24:32;;;;;;;;;5.75;5.25;;;;;10.26;62.17;100287.09;5118085;28;9478;-60
2023/05/28 01:27:00;;;;;;;;;6.00;6.00;;;;;10.21;62.19;100276.78;5117711;28;8946;-60
2023/05/28 01:29:27;;;;;;;;;1.00;1.00;;;;;10.16;62.24;100270.09;5117541;28;8854;-60
2023/05/28 01:31:55;;;;;;;;;8.00;6.50;;;;;10.12;62.61;100274.78;5117881;28;8831;-60
2023/05/28 01:34:23;;;;;;;;;6.50;6.50;;;;;10.07;62.58;100273.41;5117779;28;8867;-60
2023/05/28 01:36:51;;;;;;;;;4.50;4.00;;;;;10.02;62.37;100278.19;5117655;28;9528;-60
2023/05/28 01:39:19;;;;;;;;;3.50;3.50;;;;;9.96;62.48;100274.13;5117762;28;8967;-60
2023/05/28 01:41:46;;;;;;;;;7.50;7.00;;;;;9.91;62.75;100281.59;5117996;28;8812;-59
2023/05/28 01:44:14;;;;;;;;;4.50;4.00;;;;;9.87;62.95;100273.97;5117858;28;8828;-60
2023/05/28 01:46:43;;;;;;;;;6.00;6.00;;;;;9.84;62.61;100271.50;5117890;28;8954;-59
2023/05/28 01:49:10;;;;;;;;;5.50;4.50;;;;;9.82;62.85;100276.09;5117483;28;8824;-60
2023/05/28 01:51:38;;;;;;;;;6.75;6.00;;;;;9.81;63.50;100274.41;5116987;28;8824;-60
2023/05/28 01:54:06;;;;;;;;;4.00;4.00;;;;;9.78;63.01;100272.78;5117341;28;8835;-59
2023/05/28 01:56:33;;;;;;;;;6.00;4.00;;;;;9.77;63.09;100267.56;5117656;28;8852;-60
2023/05/28 01:59:02;;;;;;;;;5.50;3.25;;;;;9.76;62.93;100272.06;5117437;28;8801;-59
2023/05/28 02:01:29;;;;;;;;;7.00;6.75;;;;;9.75;63.00;100269.50;5117339;28;8843;-59
2023/05/28 02:03:57;;;;;;;;;5.50;5.00;;;;;9.73;63.30;100258.97;5117324;28;8936;-59
2023/05/28 02:06:25;;;;;;;;;6.33;4.67;;;;;9.72;63.03;100265.25;5116960;28;8839;-60
2023/05/28 02:08:54;;;;;;;;;6.00;6.00;;;;;9.71;63.22;100260.06;5116961;28;8962;-60
2023/05/28 02:11:22;;;;;;;;;6.00;6.00;;;;;9.69;63.23;100265.47;5117108;28;8957;-59
2023/05/28 02:13:50;;;;;;;;;5.00;5.00;;;;;9.68;63.01;100258.47;5117072;28;8974;-60
2023/05/28 02:16:18;;;;;;;;;7.50;7.00;;;;;9.67;63.13;100259.44;5117085;28;8824;-60
2023/05/28 02:18:46;;;;;;;;;3.00;3.00;;;;;9.65;63.09;100253.34;5116752;28;8963;-60
2023/05/28 02:21:13;;;;;;;;;5.00;4.00;;;;;9.64;63.52;100258.78;5116730;28;8812;-60
2023/05/28 02:23:41;;;;;;;;;5.50;4.50;;;;;9.60;63.38;100260.81;5116004;28;9446;-59
2023/05/28 02:26:09;;;;;;;;;6.00;6.00;;;;;9.56;63.36;100263.81;5116902;28;8946;-60
2023/05/28 02:28:36;;;;;;;;;7.00;6.00;;;;;9.52;63.71;100265.81;5116847;28;8850;-59
2023/05/28 02:31:05;;;;;;;;;6.75;5.75;;;;;9.50;63.53;100262.41;5116761;28;8855;-60
2023/05/28 02:33:33;;;;;;;;;6.00;5.50;;;;;9.47;63.29;100254.66;5116921;28;8925;-60
2023/05/28 02:36:01;;;;;;;;;4.00;4.00;;;;;9.44;63.71;100264.66;5116221;28;8957;-59
2023/05/28 02:38:29;;;;;;;;;6.50;6.00;;;;;9.40;63.67;100258.69;5115716;28;8838;-59
2023/05/28 02:40:57;;;;;;;;;4.50;4.50;;;;;9.34;63.69;100256.47;5116720;28;9521;-60
2023/05/28 02:43:25;;;;;;;;;6.00;6.00;;;;;9.30;64.06;100262.97;5116670;28;8812;-60
2023/05/28 02:45:52;;;;;;;;;6.00;4.00;;;;;9.26;64.17;100260.63;5116933;28;8919;-61
2023/05/28 02:48:21;;;;;;;;;2.00;2.00;;;;;9.21;64.26;100274.22;5116698;28;8815;-60
2023/05/28 02:50:48;;;;;;;;;3.50;2.00;;;;;9.18;64.31;100271.75;5116358;28;8849;-60
2023/05/28 02:53:17;;;;;;;;;3.50;3.00;;;;;9.16;64.34;100271.03;5116191;28;8831;-60
2023/05/28 02:55:44;;;;;;;;;1.00;0.75;;;;;9.15;63.86;100272.00;5116503;28;9605;-60
2023/05/28 02:58:12;;;;;;;;;5.00;4.00;;;;;9.12;64.40;100280.16;5116557;28;8954;-60
2023/05/28 03:00:40;;;;;;;;;5.50;3.75;;;;;9.11;64.67;100275.78;5116308;28;8815;-60
2023/05/28 03:03:08;;;;;;;;;11.50;8.50;;;;;9.10;64.33;100276.75;5116793;28;9529;-61
2023/05/28 03:05:36;;;;;;;;;2.00;2.00;;;;;9.10;64.50;100273.22;5116490;28;8828;-60
2023/05/28 03:08:03;;;;;;;;;3.25;3.00;;;;;9.05;64.59;100273.53;5115326;28;8827;-60
2023/05/28 03:10:31;;;;;;;;;3.00;3.00;;;;;8.99;64.43;100274.00;5115703;28;8826;-60
2023/05/28 03:12:59;;;;;;;;;3.25;2.50;;;;;8.91;64.51;100271.00;5116313;28;8816;-60
2023/05/28 03:15:30;;;;;;;;;8.50;6.00;;;;;8.82;64.82;100268.13;5116134;28;8868;-60
2023/05/28 03:17:58;;;;;;;;;5.50;5.00;;;;;8.72;64.48;100267.00;5115904;28;8816;-59
2023/05/28 03:20:26;;;;;;;;;4.00;4.00;;;;;8.65;65.14;100277.19;5115876;28;8866;-60
2023/05/28 03:22:54;;;;;;;;;4.50;4.50;;;;;8.60;65.01;100260.72;5116255;28;8824;-66
2023/05/28 03:25:23;;;;;;;;;5.60;5.60;;;;;8.60;65.12;100265.19;5116136;28;8941;-61
2023/05/28 03:27:50;;;;;;;;;8.00;4.40;;;;;8.60;65.07;100265.19;5116355;28;9513;-59
2023/05/28 03:30:18;;;;;;;;;4.00;4.00;;;;;8.61;65.23;100266.88;5116051;28;8823;-59
2023/05/28 03:32:45;;;;;;;;;6.75;4.50;;;;;8.61;65.29;100267.75;5115967;28;8832;-59
2023/05/28 03:35:13;;;;;;;;;5.20;4.80;;;;;8.63;64.91;100271.16;5116102;28;8844;-59
2023/05/28 03:37:41;;;;;;;;;3.50;3.00;;;;;8.63;64.70;100271.16;5116092;28;8962;-60
2023/05/28 03:40:09;;;;;;;;;4.00;4.00;;;;;8.67;64.70;100274.44;5115186;28;8913;-60
2023/05/28 03:42:37;;;;;;;;;3.25;3.25;;;;;8.69;64.64;100265.44;5116234;28;8955;-59
2023/05/28 03:45:05;;;;;;;;;6.00;5.60;;;;;8.72;64.97;100265.22;5115902;28;8953;-60
2023/05/28 03:47:33;;;;;;;;;5.50;5.00;;;;;8.76;64.61;100269.38;5115972;28;8934;-59
2023/05/28 03:50:01;;;;;;;;;4.80;4.80;;;;;8.81;64.72;100263.75;5117174;28;8835;-62
2023/05/28 03:52:28;;;;;;;;;4.00;4.00;;;;;8.84;64.37;100264.41;5119690;28;8942;-60
2023/05/28 03:54:56;;;;;;;;;0.75;0.75;;;;;8.87;63.80;100261.53;5119777;28;8905;-62
2023/05/28 03:57:24;;;;;;;;;5.50;4.00;;;;;8.88;64.25;100260.56;5119649;28;8950;-61
2023/05/28 03:59:55;;;;;;;;;5.50;5.50;;;;;8.89;63.78;100262.28;5119629;28;8815;-61
2023/05/28 04:02:24;;;;;;;;;3.25;3.25;;;;;8.90;64.41;100263.13;5119374;28;8900;-62
2023/05/28 04:04:52;;;;;;;;;5.00;5.00;;;;;8.93;64.33;100253.16;5119483;28;8835;-60
2023/05/28 04:07:20;;;;;;;;;4.00;3.75;;;;;8.97;63.99;100259.09;5118996;28;8855;-62
2023/05/28 04:09:47;;;;;;;;;3.75;3.75;;;;;9.01;64.07;100256.13;5118382;28;8815;-62
2023/05/28 04:12:15;;;;;;;;;3.75;3.50;;;;;9.07;64.28;100254.88;5118697;28;8830;-59
2023/05/28 04:14:43;;;;;;;;;3.50;3.50;;;;;9.12;63.88;100256.25;5118636;28;8840;-60
2023/05/28 04:17:12;;;;;;;;;6.25;6.00;;;;;9.19;63.92;100260.19;5119056;28;8824;-62
2023/05/28 04:19:40;;;;;;;;;4.00;4.00;;;;;9.31;63.49;100261.13;5118813;28;8839;-60
2023/05/28 04:22:09;;;;;;;;;6.00;3.75;;;;;9.41;63.46;100259.56;5118750;28;8958;-60
2023/05/28 04:24:36;;;;;;;;;6.00;6.00;;;;;9.48;63.36;100253.69;5119127;28;8827;-60
2023/05/28 04:27:04;;;;;;;;;5.75;5.00;;;;;9.57;62.95;100249.53;5119186;28;8828;-61
2023/05/28 04:29:33;;;;;;;;;5.50;5.50;;;;;9.62;63.17;100247.38;5119158;28;8843;-61
2023/05/28 04:32:01;;;;;;;;;6.25;6.25;;;;;9.68;63.09;100254.94;5119152;28;8828;-59
2023/05/28 04:34:28;;;;;;;;;6.50;5.50;;;;;9.81;62.89;100253.13;5118828;28;8848;-61
2023/05/28 04:36:58;;;;;;;;;6.00;5.00;;;;;9.91;63.11;100249.69;5118970;28;8942;-59
2023/05/28 04:39:26;;;;;;;;;3.75;3.75;;;;;10.00;62.41;100258.81;5118844;28;8827;-60
2023/05/28 04:41:54;;;;;;;;;6.25;5.50;;;;;10.05;62.29;100262.88;5118870;28;9646;-62
2023/05/28 04:44:25;;;;;;;;;6.25;6.00;;;;;10.12;62.56;100257.97;5119101;28;8946;-60
2023/05/28 04:46:53;;;;;;;;;7.50;7.25;;;;;10.22;62.41;100251.00;5118713;28;8860;-60
2023/05/28 04:49:21;;;;;;;;;3.75;2.50;;;;;10.29;62.22;100260.22;5118911;28;8866;-60
2023/05/28 04:51:49;;;;;;;;;9.50;7.00;;;;;10.35;62.29;100262.44;5119157;28;8973;-61
2023/05/28 04:54:17;;;;;;;;;6.75;6.75;;;;;10.41;62.22;100270.81;5118936;28;8812;-60
2023/05/28 04:56:45;;;;;;;;;5.00;5.00;;;;;10.46;61.86;100271.34;5118922;28;8859;-62
2023/05/28 04:59:13;;;;;;;;;8.00;7.00;;;;;10.50;61.99;100270.16;5118375;28;8855;-60
2023/05/28 05:01:41;;;;;;;;;8.00;6.75;;;;;10.54;61.90;100274.28;5118381;28;8962;-60
2023/05/28 05:04:09;;;;;;;;;8.50;6.75;;;;;10.63;61.96;100276.25;5118279;28;8846;-61
2023/05/28 05:06:37;;;;;;;;;7.25;6.25;;;;;10.76;61.66;100282.38;5118341;28;8820;-60
2023/05/28 05:09:05;;;;;;;;;10.00;9.25;;;;;10.89;61.16;100282.31;5117959;28;8858;-60
2023/05/28 05:11:33;;;;;;;;;7.67;6.67;;;;;11.01;61.38;100276.88;5118432;28;8850;-60
2023/05/28 05:14:00;;;;;;;;;10.50;9.75;;;;;11.15;60.70;100276.69;5118113;28;8812;-60
2023/05/28 05:16:28;;;;;;;;;10.00;9.50;;;;;11.27;61.39;100282.91;5117994;28;8838;-60
2023/05/28 05:18:56;;;;;;;;;8.25;7.25;;;;;11.39;61.12;100280.13;5118364;28;8836;-60
2023/05/28 05:21:24;;;;;;;;;6.50;6.50;;;;;11.51;60.82;100281.03;5118076;28;8840;-60
2023/05/28 05:23:51;;;;;;;;;3.75;3.25;;;;;11.63;60.19;100275.59;5118098;28;8848;-60
2023/05/28 05:26:19;;;;;;;;;8.00;8.00;;;;;11.75;60.08;100271.94;5118028;28;8819;-60
2023/05/28 05:28:48;;;;;;;;;9.25;9.25;;;;;11.87;60.24;100279.00;5118537;28;8970;-59
2023/05/28 05:31:15;;;;;;;;;10.25;8.75;;;;;12.03;60.16;100276.78;5118308;28;8851;-60
2023/05/28 05:33:43;;;;;;;;;9.50;9.00;;;;;12.20;60.07;100285.16;5118092;28;8936;-60
2023/05/28 05:36:11;;;;;;;;;11.50;10.00;;;;;12.33;59.21;100287.66;5117524;28;8824;-60
2023/05/28 05:38:38;;;;;;;;;9.25;7.00;;;;;12.46;59.20;100267.00;5117747;28;8812;-60
2023/05/28 05:41:06;;;;;;;;;7.00;7.00;;;;;12.60;59.21;100274.75;5117864;28;8843;-59
2023/05/28 05:43:34;;;;;;;;;6.50;6.25;;;;;12.74;58.86;100279.75;5117927;28;8844;-60
2023/05/28 05:46:01;;;;;;;;;8.50;8.50;;;;;12.86;58.93;100282.28;5117429;28;8958;-60
2023/05/28 05:48:29;;;;;;;;;9.25;9.25;;;;;12.99;58.83;100279.47;5117619;28;8820;-60
2023/05/28 05:51:00;;;;;;;;;13.00;13.00;;;;;13.10;58.86;100274.03;5117514;28;8846;-60
2023/05/28 05:53:28;;;;;;;;;9.50;8.50;;;;;13.23;58.89;100275.53;5117820;28;8827;-60
2023/05/28 05:55:56;;;;;;;;;8.25;7.25;;;;;13.31;58.34;100267.72;5117283;28;8828;-60
2023/05/28 05:58:24;;;;;;;;;10.00;9.25;;;;;13.42;58.51;100275.66;5117519;28;8842;-61
2023/05/28 06:00:52;;;;;;;;;10.00;7.50;;;;;13.53;57.80;100282.78;5117105;28;8823;-61
2023/05/28 06:03:20;;;;;;;;;7.50;7.00;;;;;13.66;58.17;100278.06;5117133;28;8956;-60
2023/05/28 06:05:48;;;;;;;;;10.00;9.50;;;;;13.82;58.07;100278.44;5116391;28;9603;-60
2023/05/28 06:08:16;;;;;;;;;10.75;9.00;;;;;13.96;57.67;100272.72;5116909;28;8842;-60
2023/05/28 06:10:44;;;;;;;;;10.50;10.50;;;;;14.08;58.03;100279.63;5117126;28;8962;-59
2023/05/28 06:13:12;;;;;;;;;12.00;11.00;;;;;14.16;57.61;100279.81;5115300;28;8947;-59
2023/05/28 06:15:41;;;;;;;;;11.00;7.00;;;;;14.23;57.30;100281.84;5116719;28;9466;-60
2023/05/28 06:18:09;;;;;;;;;10.25;10.25;;;;;14.29;57.19;100283.13;5117016;28;8812;-60
2023/05/28 06:20:37;;;;;;;;;11.00;8.50;;;;;14.39;57.46;100282.16;5117318;28;9478;-59
2023/05/28 06:23:05;;;;;;;;;12.50;11.50;;;;;14.53;57.38;100286.28;5116849;28;8836;-61
2023/05/28 06:25:35;;;;;;;;;5.00;5.00;;;;;14.65;57.22;100279.81;5116111;28;8824;-60
2023/05/28 06:28:02;;;;;;;;;12.25;12.00;;;;;14.77;56.97;100278.69;5115660;28;8920;-60
2023/05/28 06:30:30;;;;;;;;;12.75;10.00;;;;;14.87;56.87;100284.91;5115855;28;8881;-60
2023/05/28 06:32:58;;;;;;;;;10.50;10.00;;;;;14.94;56.56;100281.50;5115857;28;8816;-59
2023/05/28 06:35:26;;;;;;;;;12.25;10.00;;;;;15.06;56.30;100293.81;5115431;28;8864;-60
2023/05/28 06:37:53;;;;;;;;;9.00;8.00;;;;;15.18;57.23;100278.41;5114550;28;9028;-60
2023/05/28 06:40:21;;;;;;;;;11.00;11.00;;;;;15.28;56.71;100273.88;5116081;28;9189;-60
2023/05/28 06:42:49;;;;;;;;;8.00;5.75;;;;;15.42;56.68;100276.13;5116354;28;9502;-59
2023/05/28 06:45:17;;;;;;;;;10.00;9.00;;;;;15.55;55.78;100280.19;5116441;28;8881;-60
2023/05/28 06:47:45;;;;;;;;;9.50;8.50;;;;;15.66;56.20;100273.81;5116319;28;8827;-60
2023/05/28 06:50:13;;;;;;;;;12.50;12.50;;;;;15.79;55.96;100280.53;5115620;28;8917;-59
2023/05/28 06:52:40;;;;;;;;;12.50;10.00;;;;;15.92;55.88;100274.88;5115625;28;8832;-60
2023/05/28 06:55:09;;;;;;;;;6.00;6.00;;;;;16.05;55.42;100270.84;5116049;28;8832;-60
2023/05/28 06:57:37;;;;;;;;;6.00;6.00;;;;;16.18;55.45;100272.16;5116410;28;8865;-59
2023/05/28 07:00:09;;;;;;;;;10.75;9.50;;;;;16.32;55.33;100270.84;5116261;28;8824;-60
2023/05/28 07:02:36;;;;;;;;;10.75;9.25;;;;;16.45;55.19;100263.28;5116262;28;8820;-59
2023/05/28 07:05:04;;;;;;;;;6.25;6.00;;;;;16.57;54.73;100276.34;5116491;28;8974;-60
2023/05/28 07:07:32;;;;;;;;;7.50;7.00;;;;;16.69;54.51;100276.97;5115932;28;8820;-60
2023/05/28 07:10:00;;;;;;;;;10.00;9.00;;;;;16.81;54.64;100289.22;5116376;28;8954;-60
2023/05/28 07:12:28;;;;;;;;;12.00;8.50;;;;;16.94;54.55;100285.13;5116614;28;8839;-60
2023/05/28 07:14:56;;;;;;;;;9.75;9.00;;;;;17.05;54.24;100287.63;5116092;28;9662;-60
2023/05/28 07:17:25;;;;;;;;;12.50;10.00;;;;;17.14;54.45;100292.06;5116025;28;9556;-60
2023/05/28 07:19:53;;;;;;;;;7.40;7.40;;;;;17.24;54.22;100281.22;5116319;28;8847;-60
2023/05/28 07:22:20;;;;;;;;;9.00;9.00;;;;;17.31;54.18;100283.09;5116372;28;8846;-61
2023/05/28 07:24:48;;;;;;;;;6.40;6.20;;;;;17.42;54.10;100291.00;5118254;28;8820;-60
2023/05/28 07:27:15;;;;;;;;;14.60;9.80;;;;;17.52;53.74;100294.41;5119001;28;8862;-61
2023/05/28 07:29:43;;;;;;;;;8.60;7.20;;;;;17.62;53.84;100294.31;5120354;28;9619;-61
2023/05/28 07:32:11;;;;;;;;;9.00;8.20;;;;;17.72;53.69;100295.91;5119925;28;8800;-61
2023/05/28 07:34:40;;;;;;;;;10.80;9.80;;;;;17.79;53.44;100294.28;5120152;28;8828;-60
2023/05/28 07:37:08;;;;;;;;;10.00;8.40;;;;;17.89;53.92;100297.69;5120116;28;8856;-60
2023/05/28 07:39:36;;;;;;;;;12.00;9.60;;;;;17.97;53.61;100288.78;5120357;28;8828;-61
2023/05/28 07:42:04;;;;;;;;;8.20;7.80;;;;;18.07;53.56;100292.25;5120130;28;8855;-61
2023/05/28 07:44:32;;;;;;;;;7.00;6.00;;;;;18.13;53.52;100294.28;5120261;28;8949;-60
2023/05/28 07:46:59;;;;;;;;;7.40;7.40;;;;;18.20;53.63;100292.63;5120028;28;8921;-61
2023/05/28 07:49:27;;;;;;;;;8.20;7.80;;;;;18.30;53.45;100290.69;5119805;28;8850;-60
2023/05/28 07:51:55;;;;;;;;;8.20;7.00;;;;;18.36;53.01;100295.44;5119677;28;8955;-60
2023/05/28 07:54:22;;;;;;;;;10.80;10.80;;;;;18.43;53.39;100291.91;5119639;28;8859;-61
2023/05/28 07:56:50;;;;;;;;;7.60;7.60;;;;;18.54;53.14;100291.63;5119908;28;8824;-60
2023/05/28 07:59:21;;;;;;;;;9.40;8.80;;;;;18.67;52.97;100294.69;5119998;28;8812;-61
2023/05/28 08:01:49;;;;;;;;;11.60;9.60;;;;;18.77;52.73;100303.50;5119294;28;8843;-63
2023/05/28 08:04:17;;;;;;;;;10.00;7.60;;;;;18.86;52.89;100293.53;5119229;28;8852;-62
2023/05/28 08:06:45;;;;;;;;;9.20;8.40;;;;;18.96;52.03;100295.06;5118906;28;9525;-61
2023/05/28 08:09:15;;;;;;;;;4.60;4.00;;;;;19.07;52.13;100281.28;5119263;28;8828;-61
2023/05/28 08:11:43;;;;;;;;;8.40;7.60;;;;;19.17;52.42;100287.34;5119230;28;9610;-61
2023/05/28 08:14:10;;;;;;;;;7.60;7.00;;;;;19.25;52.02;100283.81;5118934;28;8839;-61
2023/05/28 08:16:38;;;;;;;;;8.40;8.40;;;;;19.35;52.25;100282.63;5118773;28;8839;-61
2023/05/28 08:19:06;;;;;;;;;10.80;8.20;;;;;19.47;51.79;100284.00;5118634;28;8827;-61
2023/05/28 08:21:35;;;;;;;;;9.20;8.40;;;;;19.59;51.61;100287.19;5118657;28;8929;-61
2023/05/28 08:24:06;;;;;;;;;7.00;5.00;;;;;19.74;51.35;100291.75;5118762;28;8820;-61
2023/05/28 08:26:34;;;;;;;;;7.40;6.20;;;;;19.86;51.11;100278.72;5118192;28;8847;-60
2023/05/28 08:29:02;;;;;;;;;7.60;7.60;;;;;19.96;51.64;100274.75;5117710;28;8925;-61
2023/05/28 08:31:29;;;;;;;;;7.20;7.00;;;;;20.06;51.05;100275.47;5117559;28;8844;-61
2023/05/28 08:33:58;;;;;;;;;4.20;4.20;;;;;20.20;51.28;100274.75;5118901;28;8852;-60
2023/05/28 08:36:26;;;;;;;;;6.20;5.80;;;;;20.29;50.80;100270.97;5117760;28;8844;-61
2023/05/28 08:38:54;;;;;;;;;6.80;6.20;;;;;20.42;50.50;100273.97;5118497;28;8958;-61
2023/05/28 08:41:22;;;;;;;;;7.60;7.40;;;;;20.57;50.55;100269.50;5118510;28;8831;-61
2023/05/28 08:43:51;;;;;;;;;7.00;4.80;;;;;20.64;50.15;100267.72;5117986;28;9494;-60
2023/05/28 08:46:20;;;;;;;;;7.00;5.80;;;;;20.71;50.36;100266.00;5117504;28;8847;-61
2023/05/28 08:48:47;;;;;;;;;7.80;7.80;;;;;20.82;50.36;100262.91;5117804;28;8823;-60
2023/05/28 08:51:15;;;;;;;;;7.40;5.40;;;;;20.92;49.88;100268.13;5117521;28;8828;-60
2023/05/28 08:53:43;;;;;;;;;8.00;7.00;;;;;20.99;50.13;100264.50;5117631;28;8839;-61
2023/05/28 08:56:11;;;;;;;;;5.80;5.80;;;;;21.06;49.80;100262.75;5117631;28;8843;-60
2023/05/28 08:58:39;;;;;;;;;5.40;5.00;;;;;21.12;49.89;100264.75;5117908;28;8907;-62
2023/05/28 09:01:07;;;;;;;;;8.00;7.20;;;;;21.20;49.54;100259.25;5118068;28;8938;-60
2023/05/28 09:03:35;;;;;;;;;7.80;6.60;;;;;21.32;49.56;100255.06;5117195;28;9532;-61
2023/05/28 09:06:03;;;;;;;;;5.00;4.60;;;;;21.41;49.76;100254.00;5116967;28;8839;-60
2023/05/28 09:08:31;;;;;;;;;4.80;4.00;;;;;21.51;49.64;100247.28;5117236;28;8812;-61
2023/05/28 09:10:59;;;;;;;;;4.60;4.40;;;;;21.61;49.37;100260.56;5117540;28;8874;-61
2023/05/28 09:13:27;;;;;;;;;5.00;5.00;;;;;21.66;49.00;100240.06;5117109;28;8836;-62
2023/05/28 09:15:55;;;;;;;;;6.20;5.20;;;;;21.76;48.85;100253.31;5116788;28;8824;-60
2023/05/28 09:18:23;;;;;;;;;4.00;4.00;;;;;21.83;48.59;100243.41;5117451;28;8836;-61
2023/05/28 09:20:51;;;;;;;;;4.40;4.40;;;;;21.89;48.65;100242.69;5117304;28;8881;-61
2023/05/28 09:23:20;;;;;;;;;4.00;4.00;;;;;21.96;48.72;100239.03;5117207;28;8828;-61
2023/05/28 09:25:48;;;;;;;;;6.60;6.00;;;;;22.10;47.99;100242.78;5117649;28;8819;-60
2023/05/28 09:28:16;;;;;;;;;7.20;6.20;;;;;22.19;48.47;100241.63;5117601;28;8893;-61
2023/05/28 09:30:45;;;;;;;;;5.00;5.00;;;;;22.32;48.31;100239.09;5117679;28;9609;-61
2023/05/28 09:33:13;;;;;;;;;4.00;4.00;;;;;22.53;47.58;100242.72;5117941;28;8831;-62
2023/05/28 09:35:41;;;;;;;;;5.00;5.00;;;;;22.66;47.71;100236.59;5117605;28;8832;-61
2023/05/28 09:38:09;;;;;;;;;7.20;6.00;;;;;22.79;47.16;100239.47;5117647;28;8828;-61
2023/05/28 09:40:37;;;;;;;;;5.40;5.20;;;;;22.88;47.05;100235.59;5117041;28;8828;-62
2023/05/28 09:43:05;;;;;;;;;5.60;5.40;;;;;22.96;46.97;100240.91;5117504;28;8917;-61
2023/05/28 09:45:33;;;;;;;;;4.40;4.40;;;;;23.04;46.83;100235.31;5116937;28;8836;-62
2023/05/28 09:48:02;;;;;;;;;6.80;4.80;;;;;23.18;46.45;100235.31;5116648;28;8847;-61
2023/05/28 09:50:29;;;;;;;;;5.40;5.00;;;;;23.39;46.47;100229.84;5116555;28;8928;-62
2023/05/28 09:52:58;;;;;;;;;2.40;2.40;;;;;23.64;45.69;100230.22;5116809;28;8847;-61
2023/05/28 09:55:26;;;;;;;;;3.20;2.60;;;;;23.88;45.47;100213.47;5116567;28;9441;-61
2023/05/28 09:57:54;;;;;;;;;3.60;2.40;;;;;24.12;44.92;100221.97;5117112;28;8840;-62
2023/05/28 10:00:23;;;;;;;;;3.00;3.00;;;;;24.40;44.40;100211.00;5117033;28;9614;-61
2023/05/28 10:02:51;;;;;;;;;2.40;2.40;;;;;24.68;44.19;100219.94;5116713;28;9513;-61
2023/05/28 10:05:19;;;;;;;;;3.40;3.40;;;;;24.97;43.82;100222.31;5116425;28;8859;-62
2023/05/28 10:07:47;;;;;;;;;4.20;3.40;;;;;25.27;43.14;100215.44;5117079;28;8832;-62
2023/05/28 10:10:15;;;;;;;;;5.00;4.20;;;;;25.58;42.85;100221.94;5116508;28;8866;-62
2023/05/28 10:12:43;;;;;;;;;3.40;3.40;;;;;25.93;42.47;100218.75;5116740;28;8828;-62
2023/05/28 10:15:11;;;;;;;;;5.00;4.20;;;;;26.27;42.58;100214.88;5116661;28;8827;-62
2023/05/28 10:17:39;;;;;;;;;6.80;5.40;;;;;26.50;41.53;100223.41;5115987;28;8857;-62
2023/05/28 10:20:10;;;;;;;;;2.80;2.80;;;;;26.75;41.63;100216.13;5116213;28;8819;-62
2023/05/28 10:22:38;;;;;;;;;4.40;3.00;;;;;26.94;41.39;100226.94;5116478;28;8938;-62
2023/05/28 10:25:07;;;;;;;;;5.60;4.80;;;;;27.21;41.23;100214.81;5116425;28;8835;-62
2023/05/28 10:27:35;;;;;;;;;2.40;2.40;;;;;27.58;40.84;100222.06;5116442;28;8895;-62
2023/05/28 10:30:03;;;;;;;;;6.00;4.40;;;;;27.91;40.08;100219.06;5116512;28;8838;-61
2023/05/28 10:32:31;;;;;;;;;4.40;4.40;;;;;28.22;39.57;100216.16;5116520;28;8824;-62
2023/05/28 10:34:59;;;;;;;;;4.00;3.40;;;;;28.48;39.22;100222.19;5116449;28;8871;-62
2023/05/28 10:37:27;;;;;;;;;3.00;2.80;;;;;28.74;39.11;100212.78;5116251;28;8820;-62
2023/05/28 10:39:55;;;;;;;;;7.00;6.00;;;;;28.92;39.26;100216.31;5115300;28;8921;-62
2023/05/28 10:42:23;;;;;;;;;4.20;4.00;;;;;29.14;38.37;100209.22;5115362;28;9517;-62
2023/05/28 10:44:51;;;;;;;;;3.60;3.40;;;;;29.39;37.99;100209.88;5113822;28;8832;-62
2023/05/28 10:47:19;;;;;;;;;2.20;2.20;;;;;29.57;37.98;100211.72;5113543;28;8868;-62
2023/05/28 10:49:48;;;;;;;;;4.00;4.00;;;;;29.63;37.76;100219.84;5093223;28;8842;-62
2023/05/28 10:52:16;;;;;;;;;3.60;3.60;;;;;29.78;37.59;100220.19;5103553;28;8831;-61
2023/05/28 10:54:45;;;;;;;;;4.40;4.00;;;;;30.03;37.52;100211.72;5113473;28;8929;-62
2023/05/28 10:57:13;;;;;;;;;4.00;4.00;;;;;30.30;37.11;100216.47;5114130;28;8831;-62
2023/05/28 10:59:41;;;;;;;;;3.00;3.00;;;;;30.52;36.83;100214.72;5114221;28;9828;-62
2023/05/28 11:02:10;;;;;;;;;5.00;4.00;;;;;30.69;36.76;100209.31;5115091;28;8856;-61
2023/05/28 11:04:39;;;;;;;;;3.00;3.00;;;;;30.83;36.10;100203.28;5115623;28;8852;-62
2023/05/28 11:07:07;;;;;;;;;3.60;3.60;;;;;30.92;36.05;100208.13;5115722;28;8832;-62
2023/05/28 11:09:35;;;;;;;;;4.60;4.60;;;;;31.08;35.80;100207.31;5114455;28;8812;-62
2023/05/28 11:12:03;;;;;;;;;3.40;3.40;;;;;31.11;35.28;100200.50;5115709;28;8838;-62
2023/05/28 11:14:31;;;;;;;;;3.20;3.00;;;;;31.18;35.16;100202.03;5115267;28;8831;-62
2023/05/28 11:16:58;;;;;;;;;4.00;4.00;;;;;31.27;35.33;100203.28;5115291;28;8832;-62
2023/05/28 11:19:26;;;;;;;;;4.20;4.00;;;;;31.47;34.84;100208.28;5114879;28;8832;-62
2023/05/28 11:21:55;;;;;;;;;3.00;3.00;;;;;31.68;34.88;100207.53;5114384;28;8916;-62
2023/05/28 11:24:23;;;;;;;;;3.00;3.00;;;;;31.74;34.38;100196.38;5113164;28;8920;-62
2023/05/28 11:26:52;;;;;;;;;4.60;4.60;;;;;31.77;34.58;100206.03;5113028;28;8858;-62
2023/05/28 11:29:20;;;;;;;;;3.80;3.80;;;;;32.01;33.76;100200.06;5112976;28;8863;-62
2023/05/28 11:31:48;;;;;;;;;2.40;2.40;;;;;32.18;33.29;100200.03;5113653;28;8839;-62
2023/05/28 11:34:16;;;;;;;;;4.20;4.20;;;;;32.30;33.67;100195.25;5112743;28;9017;-62
2023/05/28 11:36:43;;;;;;;;;5.80;5.20;;;;;32.37;33.72;100199.50;5113284;28;8836;-62